sensor_id;sensor_type;location;lat;lon;timestamp;P1;P2;P0
63915;PMS5003;50094;51.356;-0.196;2023-02-25T00:01:25;9;9;
63915;PMS5003;50094;51.356;-0.196;2023-02-25T00:03:54;9;9;
63915;PMS5003;50094;51.356;-0.196;2023-02-25T00:06:22;15;15;
63915;PMS5003;50094;51.356;-0.196;2023-02-25T00:08:50;3;2;
63915;PMS5003;50094;51.356;-0.196;2023-02-25T00:11:19;1;1;
63915;PMS5003;50094;51.356;-0.196;2023-02-25T00:13:48;2;1;
63915;PMS5003;50094;51.356;-0.196;2023-02-25T00:16:16;0;0;
63915;PMS5003;50094;51.356;-0.196;2023-02-25T00:18:44;1;1;
63915;PMS5003;50094;51.356;-0.196;2023-02-25T00:21:11;0;0;
63915;PMS5003;50094;51.356;-0.196;2023-02-25T00:23:40;1;0;
63915;PMS5003;50094;51.356;-0.196;2023-02-25T00:26:07;0;0;
63915;PMS5003;50094;51.356;-0.196;2023-02-25T00:28:35;1;1;
63915;PMS5003;50094;51.356;-0.196;2023-02-25T00:31:05;1;0;
63915;PMS5003;50094;51.356;-0.196;2023-02-25T00:33:33;1;1;
63915;PMS5003;50094;51.356;-0.196;2023-02-25T00:36:04;0;0;
63915;PMS5003;50094;51.356;-0.196;2023-02-25T00:38:31;0;0;
63915;PMS5003;50094;51.356;-0.196;2023-02-25T00:40:58;0;0;
63915;PMS5003;50094;51.356;-0.196;2023-02-25T00:43:30;0;0;
63915;PMS5003;50094;51.356;-0.196;2023-02-25T00:45:57;2;1;
63915;PMS5003;50094;51.356;-0.196;2023-02-25T00:48:25;0;0;
63915;PMS5003;50094;51.356;-0.196;2023-02-25T00:50:52;0;0;
63915;PMS5003;50094;51.356;-0.196;2023-02-25T00:53:19;1;0;
63915;PMS5003;50094;51.356;-0.196;2023-02-25T00:55:46;0;0;
63915;PMS5003;50094;51.356;-0.196;2023-02-25T00:58:13;0;0;
63915;PMS5003;50094;51.356;-0.196;2023-02-25T01:00:40;0;0;
63915;PMS5003;50094;51.356;-0.196;2023-02-25T01:03:07;2;1;
63915;PMS5003;50094;51.356;-0.196;2023-02-25T01:05:39;0;0;
63915;PMS5003;50094;51.356;-0.196;2023-02-25T01:08:06;0;0;
63915;PMS5003;50094;51.356;-0.196;2023-02-25T01:10:33;0;0;
63915;PMS5003;50094;51.356;-0.196;2023-02-25T01:13:00;1;0;
63915;PMS5003;50094;51.356;-0.196;2023-02-25T01:15:28;1;0;
63915;PMS5003;50094;51.356;-0.196;2023-02-25T01:17:55;0;0;
63915;PMS5003;50094;51.356;-0.196;2023-02-25T01:20:22;2;0;
63915;PMS5003;50094;51.356;-0.196;2023-02-25T01:22:49;0;0;
63915;PMS5003;50094;51.356;-0.196;2023-02-25T01:25:16;0;0;
63915;PMS5003;50094;51.356;-0.196;2023-02-25T01:27:44;1;1;
63915;PMS5003;50094;51.356;-0.196;2023-02-25T01:30:11;0;0;
63915;PMS5003;50094;51.356;-0.196;2023-02-25T01:32:39;0;0;
63915;PMS5003;50094;51.356;-0.196;2023-02-25T01:35:06;1;1;
63915;PMS5003;50094;51.356;-0.196;2023-02-25T01:37:33;2;0;
63915;PMS5003;50094;51.356;-0.196;2023-02-25T01:40:00;0;0;
63915;PMS5003;50094;51.356;-0.196;2023-02-25T01:42:28;0;0;
63915;PMS5003;50094;51.356;-0.196;2023-02-25T01:45:20;2;0;
63915;PMS5003;50094;51.356;-0.196;2023-02-25T01:47:52;0;0;
63915;PMS5003;50094;51.356;-0.196;2023-02-25T01:50:24;0;0;
63915;PMS5003;50094;51.356;-0.196;2023-02-25T01:52:56;0;0;
63915;PMS5003;50094;51.356;-0.196;2023-02-25T01:55:26;0;0;
63915;PMS5003;50094;51.356;-0.196;2023-02-25T01:57:54;1;1;
63915;PMS5003;50094;51.356;-0.196;2023-02-25T02:00:24;2;0;
63915;PMS5003;50094;51.356;-0.196;2023-02-25T02:02:51;0;0;
63915;PMS5003;50094;51.356;-0.196;2023-02-25T02:05:21;0;0;
63915;PMS5003;50094;51.356;-0.196;2023-02-25T02:07:50;2;0;
63915;PMS5003;50094;51.356;-0.196;2023-02-25T02:10:18;0;0;
63915;PMS5003;50094;51.356;-0.196;2023-02-25T02:12:45;0;0;
63915;PMS5003;50094;51.356;-0.196;2023-02-25T02:15:14;0;0;
63915;PMS5003;50094;51.356;-0.196;2023-02-25T02:17:43;0;0;
63915;PMS5003;50094;51.356;-0.196;2023-02-25T02:20:15;0;0;
63915;PMS5003;50094;51.356;-0.196;2023-02-25T02:22:52;0;0;
63915;PMS5003;50094;51.356;-0.196;2023-02-25T02:25:36;0;0;
63915;PMS5003;50094;51.356;-0.196;2023-02-25T02:28:21;0;0;
63915;PMS5003;50094;51.356;-0.196;2023-02-25T02:31:08;0;0;
63915;PMS5003;50094;51.356;-0.196;2023-02-25T02:33:43;0;0;
63915;PMS5003;50094;51.356;-0.196;2023-02-25T02:36:19;1;0;
63915;PMS5003;50094;51.356;-0.196;2023-02-25T02:38:57;0;0;
63915;PMS5003;50094;51.356;-0.196;2023-02-25T02:41:30;1;1;
63915;PMS5003;50094;51.356;-0.196;2023-02-25T02:44:01;0;0;
63915;PMS5003;50094;51.356;-0.196;2023-02-25T02:46:37;0;0;
63915;PMS5003;50094;51.356;-0.196;2023-02-25T02:49:09;1;1;
63915;PMS5003;50094;51.356;-0.196;2023-02-25T02:51:42;0;0;
63915;PMS5003;50094;51.356;-0.196;2023-02-25T02:54:13;1;0;
63915;PMS5003;50094;51.356;-0.196;2023-02-25T02:56:42;0;0;
63915;PMS5003;50094;51.356;-0.196;2023-02-25T02:59:14;1;1;
63915;PMS5003;50094;51.356;-0.196;2023-02-25T03:01:49;0;0;
63915;PMS5003;50094;51.356;-0.196;2023-02-25T03:04:22;0;0;
63915;PMS5003;50094;51.356;-0.196;2023-02-25T03:07:00;0;0;
63915;PMS5003;50094;51.356;-0.196;2023-02-25T03:09:31;0;0;
63915;PMS5003;50094;51.356;-0.196;2023-02-25T03:12:03;0;0;
63915;PMS5003;50094;51.356;-0.196;2023-02-25T03:14:30;0;0;
63915;PMS5003;50094;51.356;-0.196;2023-02-25T03:16:58;0;0;
63915;PMS5003;50094;51.356;-0.196;2023-02-25T03:19:31;1;1;
63915;PMS5003;50094;51.356;-0.196;2023-02-25T03:22:03;0;0;
63915;PMS5003;50094;51.356;-0.196;2023-02-25T03:24:34;0;0;
63915;PMS5003;50094;51.356;-0.196;2023-02-25T03:27:23;0;0;
63915;PMS5003;50094;51.356;-0.196;2023-02-25T03:29:55;0;0;
63915;PMS5003;50094;51.356;-0.196;2023-02-25T03:32:28;0;0;
63915;PMS5003;50094;51.356;-0.196;2023-02-25T03:34:58;0;0;
63915;PMS5003;50094;51.356;-0.196;2023-02-25T03:37:28;0;0;
63915;PMS5003;50094;51.356;-0.196;2023-02-25T03:39:58;0;0;
63915;PMS5003;50094;51.356;-0.196;2023-02-25T03:42:29;1;0;
63915;PMS5003;50094;51.356;-0.196;2023-02-25T03:45:00;1;1;
63915;PMS5003;50094;51.356;-0.196;2023-02-25T03:47:31;0;0;
63915;PMS5003;50094;51.356;-0.196;2023-02-25T03:50:05;0;0;
63915;PMS5003;50094;51.356;-0.196;2023-02-25T03:52:37;0;0;
63915;PMS5003;50094;51.356;-0.196;2023-02-25T03:55:06;0;0;
63915;PMS5003;50094;51.356;-0.196;2023-02-25T03:57:35;0;0;
63915;PMS5003;50094;51.356;-0.196;2023-02-25T04:00:06;2;0;
63915;PMS5003;50094;51.356;-0.196;2023-02-25T04:02:35;0;0;
63915;PMS5003;50094;51.356;-0.196;2023-02-25T04:05:02;0;0;
63915;PMS5003;50094;51.356;-0.196;2023-02-25T04:07:29;1;1;
63915;PMS5003;50094;51.356;-0.196;2023-02-25T04:09:57;0;0;
63915;PMS5003;50094;51.356;-0.196;2023-02-25T04:12:24;0;0;
63915;PMS5003;50094;51.356;-0.196;2023-02-25T04:14:51;0;0;
63915;PMS5003;50094;51.356;-0.196;2023-02-25T04:17:18;0;0;
63915;PMS5003;50094;51.356;-0.196;2023-02-25T04:19:45;0;0;
63915;PMS5003;50094;51.356;-0.196;2023-02-25T04:22:12;0;0;
63915;PMS5003;50094;51.356;-0.196;2023-02-25T04:24:39;0;0;
63915;PMS5003;50094;51.356;-0.196;2023-02-25T04:27:07;0;0;
63915;PMS5003;50094;51.356;-0.196;2023-02-25T04:29:34;0;0;
63915;PMS5003;50094;51.356;-0.196;2023-02-25T04:32:01;2;0;
63915;PMS5003;50094;51.356;-0.196;2023-02-25T04:34:28;0;0;
63915;PMS5003;50094;51.356;-0.196;2023-02-25T04:36:55;1;0;
63915;PMS5003;50094;51.356;-0.196;2023-02-25T04:39:22;0;0;
63915;PMS5003;50094;51.356;-0.196;2023-02-25T04:41:49;0;0;
63915;PMS5003;50094;51.356;-0.196;2023-02-25T04:44:16;0;0;
63915;PMS5003;50094;51.356;-0.196;2023-02-25T04:46:43;0;0;
63915;PMS5003;50094;51.356;-0.196;2023-02-25T04:49:10;0;0;
63915;PMS5003;50094;51.356;-0.196;2023-02-25T04:51:38;0;0;
63915;PMS5003;50094;51.356;-0.196;2023-02-25T04:54:05;0;0;
63915;PMS5003;50094;51.356;-0.196;2023-02-25T04:56:32;0;0;
63915;PMS5003;50094;51.356;-0.196;2023-02-25T04:58:59;0;0;
63915;PMS5003;50094;51.356;-0.196;2023-02-25T05:01:26;0;0;
63915;PMS5003;50094;51.356;-0.196;2023-02-25T05:03:54;0;0;
63915;PMS5003;50094;51.356;-0.196;2023-02-25T05:06:21;1;0;
63915;PMS5003;50094;51.356;-0.196;2023-02-25T05:08:48;0;0;
63915;PMS5003;50094;51.356;-0.196;2023-02-25T05:11:15;0;0;
63915;PMS5003;50094;51.356;-0.196;2023-02-25T05:13:43;0;0;
63915;PMS5003;50094;51.356;-0.196;2023-02-25T05:16:11;0;0;
63915;PMS5003;50094;51.356;-0.196;2023-02-25T05:18:41;0;0;
63915;PMS5003;50094;51.356;-0.196;2023-02-25T05:21:10;0;0;
63915;PMS5003;50094;51.356;-0.196;2023-02-25T05:23:39;0;0;
63915;PMS5003;50094;51.356;-0.196;2023-02-25T05:26:08;1;1;
63915;PMS5003;50094;51.356;-0.196;2023-02-25T05:28:37;1;1;
63915;PMS5003;50094;51.356;-0.196;2023-02-25T05:31:05;0;0;
63915;PMS5003;50094;51.356;-0.196;2023-02-25T05:33:34;0;0;
63915;PMS5003;50094;51.356;-0.196;2023-02-25T05:36:04;0;0;
63915;PMS5003;50094;51.356;-0.196;2023-02-25T05:38:31;0;0;
63915;PMS5003;50094;51.356;-0.196;2023-02-25T05:40:58;0;0;
63915;PMS5003;50094;51.356;-0.196;2023-02-25T05:43:26;0;0;
63915;PMS5003;50094;51.356;-0.196;2023-02-25T05:45:53;0;0;
63915;PMS5003;50094;51.356;-0.196;2023-02-25T05:48:21;0;0;
63915;PMS5003;50094;51.356;-0.196;2023-02-25T05:50:49;0;0;
63915;PMS5003;50094;51.356;-0.196;2023-02-25T05:53:17;0;0;
63915;PMS5003;50094;51.356;-0.196;2023-02-25T05:55:45;0;0;
63915;PMS5003;50094;51.356;-0.196;2023-02-25T05:58:12;0;0;
63915;PMS5003;50094;51.356;-0.196;2023-02-25T06:00:39;3;0;
63915;PMS5003;50094;51.356;-0.196;2023-02-25T06:03:06;0;0;
63915;PMS5003;50094;51.356;-0.196;2023-02-25T06:05:33;0;0;
63915;PMS5003;50094;51.356;-0.196;2023-02-25T06:08:05;0;0;
63915;PMS5003;50094;51.356;-0.196;2023-02-25T06:10:32;0;0;
63915;PMS5003;50094;51.356;-0.196;2023-02-25T06:13:00;2;1;
63915;PMS5003;50094;51.356;-0.196;2023-02-25T06:15:28;0;0;
63915;PMS5003;50094;51.356;-0.196;2023-02-25T06:17:55;0;0;
63915;PMS5003;50094;51.356;-0.196;2023-02-25T06:20:22;0;0;
63915;PMS5003;50094;51.356;-0.196;2023-02-25T06:22:48;0;0;
63915;PMS5003;50094;51.356;-0.196;2023-02-25T06:25:16;0;0;
63915;PMS5003;50094;51.356;-0.196;2023-02-25T06:27:44;0;0;
63915;PMS5003;50094;51.356;-0.196;2023-02-25T06:30:11;1;1;
63915;PMS5003;50094;51.356;-0.196;2023-02-25T06:32:39;2;0;
63915;PMS5003;50094;51.356;-0.196;2023-02-25T06:35:06;0;0;
63915;PMS5003;50094;51.356;-0.196;2023-02-25T06:37:33;0;0;
63915;PMS5003;50094;51.356;-0.196;2023-02-25T06:40:00;0;0;
63915;PMS5003;50094;51.356;-0.196;2023-02-25T06:42:28;1;1;
63915;PMS5003;50094;51.356;-0.196;2023-02-25T06:44:55;0;0;
63915;PMS5003;50094;51.356;-0.196;2023-02-25T06:47:22;1;1;
63915;PMS5003;50094;51.356;-0.196;2023-02-25T06:49:49;0;0;
63915;PMS5003;50094;51.356;-0.196;2023-02-25T06:52:15;1;1;
63915;PMS5003;50094;51.356;-0.196;2023-02-25T06:54:42;0;0;
63915;PMS5003;50094;51.356;-0.196;2023-02-25T06:57:09;0;0;
63915;PMS5003;50094;51.356;-0.196;2023-02-25T06:59:36;0;0;
63915;PMS5003;50094;51.356;-0.196;2023-02-25T07:02:03;0;0;
63915;PMS5003;50094;51.356;-0.196;2023-02-25T07:04:30;0;0;
63915;PMS5003;50094;51.356;-0.196;2023-02-25T07:06:57;0;0;
63915;PMS5003;50094;51.356;-0.196;2023-02-25T07:09:24;1;1;
63915;PMS5003;50094;51.356;-0.196;2023-02-25T07:11:50;0;0;
63915;PMS5003;50094;51.356;-0.196;2023-02-25T07:14:17;0;0;
63915;PMS5003;50094;51.356;-0.196;2023-02-25T07:16:44;1;1;
63915;PMS5003;50094;51.356;-0.196;2023-02-25T07:19:12;0;0;
63915;PMS5003;50094;51.356;-0.196;2023-02-25T07:21:39;0;0;
63915;PMS5003;50094;51.356;-0.196;2023-02-25T07:24:07;0;0;
63915;PMS5003;50094;51.356;-0.196;2023-02-25T07:26:34;2;1;
63915;PMS5003;50094;51.356;-0.196;2023-02-25T07:29:01;2;2;
63915;PMS5003;50094;51.356;-0.196;2023-02-25T07:31:31;2;2;
63915;PMS5003;50094;51.356;-0.196;2023-02-25T07:33:59;4;4;
63915;PMS5003;50094;51.356;-0.196;2023-02-25T07:36:25;4;4;
63915;PMS5003;50094;51.356;-0.196;2023-02-25T07:38:52;4;3;
63915;PMS5003;50094;51.356;-0.196;2023-02-25T07:41:19;4;4;
63915;PMS5003;50094;51.356;-0.196;2023-02-25T07:43:46;8;8;
63915;PMS5003;50094;51.356;-0.196;2023-02-25T07:46:13;26;26;
63915;PMS5003;50094;51.356;-0.196;2023-02-25T07:48:40;21;20;
63915;PMS5003;50094;51.356;-0.196;2023-02-25T07:51:09;19;19;
63915;PMS5003;50094;51.356;-0.196;2023-02-25T07:53:39;17;17;
63915;PMS5003;50094;51.356;-0.196;2023-02-25T07:56:06;14;14;
63915;PMS5003;50094;51.356;-0.196;2023-02-25T07:58:34;16;15;
63915;PMS5003;50094;51.356;-0.196;2023-02-25T08:01:05;12;12;
63915;PMS5003;50094;51.356;-0.196;2023-02-25T08:03:34;13;13;
63915;PMS5003;50094;51.356;-0.196;2023-02-25T08:06:02;18;18;
63915;PMS5003;50094;51.356;-0.196;2023-02-25T08:08:30;19;19;
63915;PMS5003;50094;51.356;-0.196;2023-02-25T08:10:57;13;13;
63915;PMS5003;50094;51.356;-0.196;2023-02-25T08:13:24;9;9;
63915;PMS5003;50094;51.356;-0.196;2023-02-25T08:15:51;8;8;
63915;PMS5003;50094;51.356;-0.196;2023-02-25T08:18:18;7;6;
63915;PMS5003;50094;51.356;-0.196;2023-02-25T08:20:45;6;4;
63915;PMS5003;50094;51.356;-0.196;2023-02-25T08:23:12;3;3;
63915;PMS5003;50094;51.356;-0.196;2023-02-25T08:25:39;0;0;
63915;PMS5003;50094;51.356;-0.196;2023-02-25T08:28:06;0;0;
63915;PMS5003;50094;51.356;-0.196;2023-02-25T08:30:34;2;0;
63915;PMS5003;50094;51.356;-0.196;2023-02-25T08:33:01;0;0;
63915;PMS5003;50094;51.356;-0.196;2023-02-25T08:35:28;1;1;
63915;PMS5003;50094;51.356;-0.196;2023-02-25T08:37:54;0;0;
63915;PMS5003;50094;51.356;-0.196;2023-02-25T08:40:21;1;1;
63915;PMS5003;50094;51.356;-0.196;2023-02-25T08:42:48;0;0;
63915;PMS5003;50094;51.356;-0.196;2023-02-25T08:45:15;0;0;
63915;PMS5003;50094;51.356;-0.196;2023-02-25T08:47:43;0;0;
63915;PMS5003;50094;51.356;-0.196;2023-02-25T08:50:10;1;1;
63915;PMS5003;50094;51.356;-0.196;2023-02-25T08:52:37;0;0;
63915;PMS5003;50094;51.356;-0.196;2023-02-25T08:55:05;1;1;
63915;PMS5003;50094;51.356;-0.196;2023-02-25T08:57:33;0;0;
63915;PMS5003;50094;51.356;-0.196;2023-02-25T09:00:00;1;1;
63915;PMS5003;50094;51.356;-0.196;2023-02-25T09:02:28;3;0;
63915;PMS5003;50094;51.356;-0.196;2023-02-25T09:04:55;0;0;
63915;PMS5003;50094;51.356;-0.196;2023-02-25T09:07:22;0;0;
63915;PMS5003;50094;51.356;-0.196;2023-02-25T09:09:50;1;0;
63915;PMS5003;50094;51.356;-0.196;2023-02-25T09:12:17;0;0;
63915;PMS5003;50094;51.356;-0.196;2023-02-25T09:14:44;1;1;
63915;PMS5003;50094;51.356;-0.196;2023-02-25T09:17:11;2;1;
63915;PMS5003;50094;51.356;-0.196;2023-02-25T09:19:38;2;0;
63915;PMS5003;50094;51.356;-0.196;2023-02-25T09:22:05;1;1;
63915;PMS5003;50094;51.356;-0.196;2023-02-25T09:24:33;2;1;
63915;PMS5003;50094;51.356;-0.196;2023-02-25T09:27:02;1;1;
63915;PMS5003;50094;51.356;-0.196;2023-02-25T09:29:29;0;0;
63915;PMS5003;50094;51.356;-0.196;2023-02-25T09:31:56;3;1;
63915;PMS5003;50094;51.356;-0.196;2023-02-25T09:34:23;1;1;
63915;PMS5003;50094;51.356;-0.196;2023-02-25T09:36:50;1;0;
63915;PMS5003;50094;51.356;-0.196;2023-02-25T09:39:17;1;1;
63915;PMS5003;50094;51.356;-0.196;2023-02-25T09:41:48;1;1;
63915;PMS5003;50094;51.356;-0.196;2023-02-25T09:44:18;7;3;
63915;PMS5003;50094;51.356;-0.196;2023-02-25T09:46:49;0;0;
63915;PMS5003;50094;51.356;-0.196;2023-02-25T09:49:20;0;0;
63915;PMS5003;50094;51.356;-0.196;2023-02-25T09:51:56;0;0;
63915;PMS5003;50094;51.356;-0.196;2023-02-25T09:54:29;0;0;
63915;PMS5003;50094;51.356;-0.196;2023-02-25T09:57:00;1;1;
63915;PMS5003;50094;51.356;-0.196;2023-02-25T09:59:30;0;0;
63915;PMS5003;50094;51.356;-0.196;2023-02-25T10:01:58;1;1;
63915;PMS5003;50094;51.356;-0.196;2023-02-25T10:04:31;0;0;
63915;PMS5003;50094;51.356;-0.196;2023-02-25T10:07:07;3;1;
63915;PMS5003;50094;51.356;-0.196;2023-02-25T10:09:43;0;0;
63915;PMS5003;50094;51.356;-0.196;2023-02-25T10:12:17;1;0;
63915;PMS5003;50094;51.356;-0.196;2023-02-25T10:14:56;4;1;
63915;PMS5003;50094;51.356;-0.196;2023-02-25T10:17:40;1;1;
63915;PMS5003;50094;51.356;-0.196;2023-02-25T10:20:23;1;1;
63915;PMS5003;50094;51.356;-0.196;2023-02-25T10:23:07;2;1;
63915;PMS5003;50094;51.356;-0.196;2023-02-25T10:25:43;1;0;
63915;PMS5003;50094;51.356;-0.196;2023-02-25T10:28:16;1;0;
63915;PMS5003;50094;51.356;-0.196;2023-02-25T10:30:45;2;1;
63915;PMS5003;50094;51.356;-0.196;2023-02-25T10:33:20;0;0;
63915;PMS5003;50094;51.356;-0.196;2023-02-25T10:35:50;0;0;
63915;PMS5003;50094;51.356;-0.196;2023-02-25T10:38:22;0;0;
63915;PMS5003;50094;51.356;-0.196;2023-02-25T10:40:50;1;0;
63915;PMS5003;50094;51.356;-0.196;2023-02-25T10:43:21;2;0;
63915;PMS5003;50094;51.356;-0.196;2023-02-25T10:45:56;1;1;
63915;PMS5003;50094;51.356;-0.196;2023-02-25T10:48:27;0;0;
63915;PMS5003;50094;51.356;-0.196;2023-02-25T10:51:04;0;0;
63915;PMS5003;50094;51.356;-0.196;2023-02-25T10:53:32;0;0;
63915;PMS5003;50094;51.356;-0.196;2023-02-25T10:55:59;0;0;
63915;PMS5003;50094;51.356;-0.196;2023-02-25T10:58:33;3;1;
63915;PMS5003;50094;51.356;-0.196;2023-02-25T11:01:04;1;0;
63915;PMS5003;50094;51.356;-0.196;2023-02-25T11:03:38;0;0;
63915;PMS5003;50094;51.356;-0.196;2023-02-25T11:06:12;4;0;
63915;PMS5003;50094;51.356;-0.196;2023-02-25T11:08:44;0;0;
63915;PMS5003;50094;51.356;-0.196;2023-02-25T11:11:14;2;0;
63915;PMS5003;50094;51.356;-0.196;2023-02-25T11:13:44;1;1;
63915;PMS5003;50094;51.356;-0.196;2023-02-25T11:16:21;0;0;
63915;PMS5003;50094;51.356;-0.196;2023-02-25T11:18:51;0;0;
63915;PMS5003;50094;51.356;-0.196;2023-02-25T11:21:31;1;1;
63915;PMS5003;50094;51.356;-0.196;2023-02-25T11:24:01;0;0;
63915;PMS5003;50094;51.356;-0.196;2023-02-25T11:26:32;2;0;
63915;PMS5003;50094;51.356;-0.196;2023-02-25T11:29:03;0;0;
63915;PMS5003;50094;51.356;-0.196;2023-02-25T11:31:35;0;0;
63915;PMS5003;50094;51.356;-0.196;2023-02-25T11:34:04;1;1;
63915;PMS5003;50094;51.356;-0.196;2023-02-25T11:36:38;0;0;
63915;PMS5003;50094;51.356;-0.196;2023-02-25T11:39:13;0;0;
63915;PMS5003;50094;51.356;-0.196;2023-02-25T11:41:44;0;0;
63915;PMS5003;50094;51.356;-0.196;2023-02-25T11:44:18;0;0;
63915;PMS5003;50094;51.356;-0.196;2023-02-25T11:46:51;0;0;
63915;PMS5003;50094;51.356;-0.196;2023-02-25T11:49:25;0;0;
63915;PMS5003;50094;51.356;-0.196;2023-02-25T11:52:13;1;1;
63915;PMS5003;50094;51.356;-0.196;2023-02-25T11:54:50;1;1;
63915;PMS5003;50094;51.356;-0.196;2023-02-25T11:57:29;0;0;
63915;PMS5003;50094;51.356;-0.196;2023-02-25T12:00:09;1;0;
63915;PMS5003;50094;51.356;-0.196;2023-02-25T12:02:46;0;0;
63915;PMS5003;50094;51.356;-0.196;2023-02-25T12:05:37;1;1;
63915;PMS5003;50094;51.356;-0.196;2023-02-25T12:08:22;1;1;
63915;PMS5003;50094;51.356;-0.196;2023-02-25T12:11:06;2;0;
63915;PMS5003;50094;51.356;-0.196;2023-02-25T12:14:04;0;0;
63915;PMS5003;50094;51.356;-0.196;2023-02-25T12:21:21;0;0;
63915;PMS5003;50094;51.356;-0.196;2023-02-25T12:24:13;0;0;
63915;PMS5003;50094;51.356;-0.196;2023-02-25T12:27:01;2;0;
63915;PMS5003;50094;51.356;-0.196;2023-02-25T12:29:50;1;1;
63915;PMS5003;50094;51.356;-0.196;2023-02-25T12:32:34;1;0;
63915;PMS5003;50094;51.356;-0.196;2023-02-25T12:35:19;0;0;
63915;PMS5003;50094;51.356;-0.196;2023-02-25T12:39:08;0;0;
63915;PMS5003;50094;51.356;-0.196;2023-02-25T12:41:45;2;0;
63915;PMS5003;50094;51.356;-0.196;2023-02-25T12:44:21;1;1;
63915;PMS5003;50094;51.356;-0.196;2023-02-25T12:47:11;0;0;
63915;PMS5003;50094;51.356;-0.196;2023-02-25T12:49:54;0;0;
63915;PMS5003;50094;51.356;-0.196;2023-02-25T12:52:36;0;0;
63915;PMS5003;50094;51.356;-0.196;2023-02-25T12:55:16;0;0;
63915;PMS5003;50094;51.356;-0.196;2023-02-25T12:58:01;0;0;
63915;PMS5003;50094;51.356;-0.196;2023-02-25T13:01:04;0;0;
63915;PMS5003;50094;51.356;-0.196;2023-02-25T13:03:49;0;0;
63915;PMS5003;50094;51.356;-0.196;2023-02-25T13:06:40;1;1;
63915;PMS5003;50094;51.356;-0.196;2023-02-25T13:09:22;0;0;
63915;PMS5003;50094;51.356;-0.196;2023-02-25T13:12:13;1;0;
63915;PMS5003;50094;51.356;-0.196;2023-02-25T13:14:56;0;0;
63915;PMS5003;50094;51.356;-0.196;2023-02-25T13:17:35;1;0;
63915;PMS5003;50094;51.356;-0.196;2023-02-25T13:20:24;0;0;
63915;PMS5003;50094;51.356;-0.196;2023-02-25T13:23:06;1;0;
63915;PMS5003;50094;51.356;-0.196;2023-02-25T13:25:48;1;0;
63915;PMS5003;50094;51.356;-0.196;2023-02-25T13:28:31;3;1;
63915;PMS5003;50094;51.356;-0.196;2023-02-25T13:31:12;0;0;
63915;PMS5003;50094;51.356;-0.196;2023-02-25T13:33:47;0;0;
63915;PMS5003;50094;51.356;-0.196;2023-02-25T13:36:31;0;0;
63915;PMS5003;50094;51.356;-0.196;2023-02-25T13:39:13;0;0;
63915;PMS5003;50094;51.356;-0.196;2023-02-25T13:41:58;0;0;
63915;PMS5003;50094;51.356;-0.196;2023-02-25T13:44:41;1;1;
63915;PMS5003;50094;51.356;-0.196;2023-02-25T13:47:27;0;0;
63915;PMS5003;50094;51.356;-0.196;2023-02-25T13:50:14;0;0;
63915;PMS5003;50094;51.356;-0.196;2023-02-25T13:53:00;0;0;
63915;PMS5003;50094;51.356;-0.196;2023-02-25T13:55:52;1;1;
63915;PMS5003;50094;51.356;-0.196;2023-02-25T13:58:39;1;0;
63915;PMS5003;50094;51.356;-0.196;2023-02-25T14:01:23;0;0;
63915;PMS5003;50094;51.356;-0.196;2023-02-25T14:04:49;0;0;
63915;PMS5003;50094;51.356;-0.196;2023-02-25T14:07:35;0;0;
63915;PMS5003;50094;51.356;-0.196;2023-02-25T14:10:26;0;0;
63915;PMS5003;50094;51.356;-0.196;2023-02-25T14:13:10;0;0;
63915;PMS5003;50094;51.356;-0.196;2023-02-25T14:15:57;0;0;
63915;PMS5003;50094;51.356;-0.196;2023-02-25T14:18:38;1;0;
63915;PMS5003;50094;51.356;-0.196;2023-02-25T14:21:21;0;0;
63915;PMS5003;50094;51.356;-0.196;2023-02-25T14:24:11;0;0;
63915;PMS5003;50094;51.356;-0.196;2023-02-25T14:26:48;0;0;
63915;PMS5003;50094;51.356;-0.196;2023-02-25T14:29:27;0;0;
63915;PMS5003;50094;51.356;-0.196;2023-02-25T14:32:12;0;0;
63915;PMS5003;50094;51.356;-0.196;2023-02-25T14:34:54;0;0;
63915;PMS5003;50094;51.356;-0.196;2023-02-25T14:37:37;1;1;
63915;PMS5003;50094;51.356;-0.196;2023-02-25T14:40:19;1;0;
63915;PMS5003;50094;51.356;-0.196;2023-02-25T14:42:59;0;0;
63915;PMS5003;50094;51.356;-0.196;2023-02-25T14:45:40;0;0;
63915;PMS5003;50094;51.356;-0.196;2023-02-25T14:48:13;0;0;
63915;PMS5003;50094;51.356;-0.196;2023-02-25T14:50:47;1;1;
63915;PMS5003;50094;51.356;-0.196;2023-02-25T14:53:53;0;0;
63915;PMS5003;50094;51.356;-0.196;2023-02-25T14:57:03;0;0;
63915;PMS5003;50094;51.356;-0.196;2023-02-25T14:59:47;1;1;
63915;PMS5003;50094;51.356;-0.196;2023-02-25T15:02:33;0;0;
63915;PMS5003;50094;51.356;-0.196;2023-02-25T15:05:16;0;0;
63915;PMS5003;50094;51.356;-0.196;2023-02-25T15:08:20;0;0;
63915;PMS5003;50094;51.356;-0.196;2023-02-25T15:11:04;0;0;
63915;PMS5003;50094;51.356;-0.196;2023-02-25T15:13:46;0;0;
63915;PMS5003;50094;51.356;-0.196;2023-02-25T15:16:38;2;0;
63915;PMS5003;50094;51.356;-0.196;2023-02-25T15:19:41;1;1;
63915;PMS5003;50094;51.356;-0.196;2023-02-25T15:23:16;0;0;
63915;PMS5003;50094;51.356;-0.196;2023-02-25T15:25:46;0;0;
63915;PMS5003;50094;51.356;-0.196;2023-02-25T15:28:48;0;0;
63915;PMS5003;50094;51.356;-0.196;2023-02-25T15:31:25;0;0;
63915;PMS5003;50094;51.356;-0.196;2023-02-25T15:34:23;0;0;
63915;PMS5003;50094;51.356;-0.196;2023-02-25T15:37:20;0;0;
63915;PMS5003;50094;51.356;-0.196;2023-02-25T15:39:51;0;0;
63915;PMS5003;50094;51.356;-0.196;2023-02-25T15:42:37;0;0;
63915;PMS5003;50094;51.356;-0.196;2023-02-25T15:45:40;1;1;
63915;PMS5003;50094;51.356;-0.196;2023-02-25T15:48:40;0;0;
63915;PMS5003;50094;51.356;-0.196;2023-02-25T15:51:08;0;0;
63915;PMS5003;50094;51.356;-0.196;2023-02-25T15:53:40;0;0;
63915;PMS5003;50094;51.356;-0.196;2023-02-25T15:58:55;1;0;
63915;PMS5003;50094;51.356;-0.196;2023-02-25T16:01:28;1;0;
63915;PMS5003;50094;51.356;-0.196;2023-02-25T16:04:06;0;0;
63915;PMS5003;50094;51.356;-0.196;2023-02-25T16:07:05;0;0;
63915;PMS5003;50094;51.356;-0.196;2023-02-25T16:09:33;0;0;
63915;PMS5003;50094;51.356;-0.196;2023-02-25T16:12:07;0;0;
63915;PMS5003;50094;51.356;-0.196;2023-02-25T16:14:38;0;0;
63915;PMS5003;50094;51.356;-0.196;2023-02-25T16:17:09;0;0;
63915;PMS5003;50094;51.356;-0.196;2023-02-25T16:19:42;0;0;
63915;PMS5003;50094;51.356;-0.196;2023-02-25T16:22:15;3;1;
63915;PMS5003;50094;51.356;-0.196;2023-02-25T16:24:45;0;0;
63915;PMS5003;50094;51.356;-0.196;2023-02-25T16:27:17;0;0;
63915;PMS5003;50094;51.356;-0.196;2023-02-25T16:29:59;0;0;
63915;PMS5003;50094;51.356;-0.196;2023-02-25T16:32:37;0;0;
63915;PMS5003;50094;51.356;-0.196;2023-02-25T16:35:11;0;0;
63915;PMS5003;50094;51.356;-0.196;2023-02-25T16:37:46;0;0;
63915;PMS5003;50094;51.356;-0.196;2023-02-25T16:40:21;1;1;
63915;PMS5003;50094;51.356;-0.196;2023-02-25T16:42:53;0;0;
63915;PMS5003;50094;51.356;-0.196;2023-02-25T16:45:24;2;0;
63915;PMS5003;50094;51.356;-0.196;2023-02-25T16:47:54;0;0;
63915;PMS5003;50094;51.356;-0.196;2023-02-25T16:50:23;0;0;
63915;PMS5003;50094;51.356;-0.196;2023-02-25T16:52:53;0;0;
63915;PMS5003;50094;51.356;-0.196;2023-02-25T16:55:22;0;0;
63915;PMS5003;50094;51.356;-0.196;2023-02-25T16:58:17;1;0;
63915;PMS5003;50094;51.356;-0.196;2023-02-25T17:00:49;0;0;
63915;PMS5003;50094;51.356;-0.196;2023-02-25T17:03:18;0;0;
63915;PMS5003;50094;51.356;-0.196;2023-02-25T17:05:57;0;0;
63915;PMS5003;50094;51.356;-0.196;2023-02-25T17:08:28;0;0;
63915;PMS5003;50094;51.356;-0.196;2023-02-25T17:10:55;0;0;
63915;PMS5003;50094;51.356;-0.196;2023-02-25T17:13:25;0;0;
63915;PMS5003;50094;51.356;-0.196;2023-02-25T17:15:56;0;0;
63915;PMS5003;50094;51.356;-0.196;2023-02-25T17:18:25;1;1;
63915;PMS5003;50094;51.356;-0.196;2023-02-25T17:20:58;0;0;
63915;PMS5003;50094;51.356;-0.196;2023-02-25T17:23:29;0;0;